createdAt,value
2023-03-19T00:02:17.419Z,9.23
2023-03-19T00:04:45.028Z,9.50
2023-03-19T00:07:11.653Z,10.27
2023-03-19T00:09:38.308Z,9.70
2023-03-19T00:12:05.029Z,10.30
2023-03-19T00:14:31.769Z,10.40
2023-03-19T00:16:58.485Z,9.90
2023-03-19T00:19:25.400Z,10.93
2023-03-19T00:21:52.399Z,10.40
2023-03-19T00:24:19.007Z,10.60
2023-03-19T00:26:45.672Z,10.87
2023-03-19T00:29:12.923Z,10.40
2023-03-19T00:31:40.806Z,11.73
2023-03-19T00:34:08.293Z,11.43
2023-03-19T00:36:34.850Z,12.40
2023-03-19T00:39:02.180Z,14.27
2023-03-19T00:41:29.061Z,13.97
2023-03-19T00:43:56.714Z,24.87
2023-03-19T00:46:24.169Z,12.73
2023-03-19T00:48:53.927Z,13.70
2023-03-19T00:51:20.722Z,11.73
2023-03-19T00:53:47.385Z,11.00
2023-03-19T00:56:14.556Z,13.20
2023-03-19T00:58:41.604Z,12.80
2023-03-19T01:01:09.382Z,13.10
2023-03-19T01:03:36.081Z,13.70
2023-03-19T01:06:03.473Z,24.83
2023-03-19T01:08:30.056Z,12.20
2023-03-19T01:10:56.759Z,12.00
2023-03-19T01:13:23.337Z,11.13
2023-03-19T01:15:51.809Z,13.07
2023-03-19T01:18:18.462Z,13.53
2023-03-19T01:20:45.007Z,11.73
2023-03-19T01:23:11.680Z,12.77
2023-03-19T01:25:39.043Z,11.33
2023-03-19T01:28:06.093Z,14.53
2023-03-19T01:30:32.901Z,11.47
2023-03-19T01:32:59.790Z,13.80
2023-03-19T01:35:26.415Z,12.30
2023-03-19T01:37:52.993Z,13.87
2023-03-19T01:40:19.582Z,12.00
2023-03-19T01:42:56.769Z,11.13
2023-03-19T01:45:37.259Z,11.43
2023-03-19T01:48:04.476Z,25.23
2023-03-19T01:50:44.466Z,13.13
2023-03-19T01:53:12.747Z,12.60
2023-03-19T01:55:41.006Z,12.33
2023-03-19T01:58:08.119Z,12.77
2023-03-19T02:00:35.543Z,13.33
2023-03-19T02:03:03.103Z,13.10
2023-03-19T02:05:30.784Z,26.57
2023-03-19T02:07:59.561Z,14.63
2023-03-19T02:10:27.193Z,13.13
2023-03-19T02:12:54.061Z,12.57
2023-03-19T02:15:20.645Z,14.03
2023-03-19T02:17:47.773Z,14.37
2023-03-19T02:20:24.005Z,14.33
2023-03-19T02:22:59.127Z,12.67
2023-03-19T02:25:30.292Z,13.40
2023-03-19T02:27:57.619Z,13.40
2023-03-19T02:30:24.332Z,18.80
2023-03-19T02:32:51.110Z,16.37
2023-03-19T02:35:18.169Z,12.53
2023-03-19T02:37:44.995Z,13.73
2023-03-19T02:40:14.685Z,11.93
2023-03-19T02:42:41.348Z,13.20
2023-03-19T02:45:08.915Z,12.60
2023-03-19T02:47:35.428Z,13.97
2023-03-19T02:50:02.184Z,12.40
2023-03-19T02:52:28.728Z,13.07
2023-03-19T02:54:55.570Z,12.33
2023-03-19T02:57:22.166Z,12.90
2023-03-19T02:59:48.808Z,12.80
2023-03-19T03:02:15.465Z,12.83
2023-03-19T03:04:42.127Z,14.50
2023-03-19T03:07:08.825Z,14.03
2023-03-19T03:09:35.702Z,13.60
2023-03-19T03:12:02.270Z,12.13
2023-03-19T03:14:28.916Z,12.10
2023-03-19T03:16:55.559Z,12.43
2023-03-19T03:19:23.466Z,13.00
2023-03-19T03:21:50.071Z,11.60
2023-03-19T03:24:16.747Z,13.27
2023-03-19T03:26:44.279Z,12.93
2023-03-19T03:29:11.210Z,11.53
2023-03-19T03:31:38.140Z,12.20
2023-03-19T03:34:04.734Z,12.13
2023-03-19T03:36:31.334Z,11.90
2023-03-19T03:38:58.664Z,11.13
2023-03-19T03:41:25.562Z,11.90
2023-03-19T03:43:52.467Z,11.70
2023-03-19T03:46:19.364Z,11.87
2023-03-19T03:48:46.389Z,11.90
2023-03-19T03:51:13.172Z,12.60
2023-03-19T03:53:39.845Z,12.30
2023-03-19T03:56:06.522Z,12.50
2023-03-19T03:58:33.304Z,12.53
2023-03-19T04:01:00.150Z,12.73
2023-03-19T04:03:27.364Z,12.83
2023-03-19T04:05:54.059Z,13.77
2023-03-19T04:08:20.727Z,12.63
2023-03-19T04:10:47.348Z,13.13
2023-03-19T04:13:14.070Z,13.67
2023-03-19T04:15:44.747Z,14.30
2023-03-19T04:18:11.504Z,13.27
2023-03-19T04:20:38.331Z,13.13
2023-03-19T04:23:05.009Z,13.63
2023-03-19T04:25:31.625Z,13.17
2023-03-19T04:27:58.761Z,12.87
2023-03-19T04:30:25.365Z,12.80
2023-03-19T04:32:52.063Z,12.77
2023-03-19T04:35:19.072Z,13.93
2023-03-19T04:37:48.748Z,13.83
2023-03-19T04:40:16.914Z,12.93
2023-03-19T04:42:44.705Z,13.60
2023-03-19T04:45:11.487Z,13.90
2023-03-19T04:47:38.150Z,14.93
2023-03-19T04:50:05.845Z,15.10
2023-03-19T04:52:33.444Z,15.20
2023-03-19T04:55:00.028Z,14.17
2023-03-19T04:57:27.101Z,12.50
2023-03-19T04:59:53.823Z,12.90
2023-03-19T05:02:21.007Z,12.30
2023-03-19T05:04:47.571Z,12.57
2023-03-19T05:07:14.124Z,12.47
2023-03-19T05:09:42.166Z,12.83
2023-03-19T05:12:08.914Z,13.20
2023-03-19T05:14:35.502Z,13.40
2023-03-19T05:17:03.059Z,13.53
2023-03-19T05:19:29.763Z,12.97
2023-03-19T05:21:57.352Z,13.90
2023-03-19T05:24:24.598Z,12.97
2023-03-19T05:26:51.179Z,14.00
2023-03-19T05:29:17.849Z,13.53
2023-03-19T05:31:44.484Z,12.30
2023-03-19T05:34:11.090Z,11.77
2023-03-19T05:36:37.651Z,12.67
2023-03-19T05:39:06.073Z,13.97
2023-03-19T05:41:32.722Z,13.67
2023-03-19T05:43:59.369Z,12.60
2023-03-19T05:46:26.038Z,11.77
2023-03-19T05:48:52.906Z,11.80
2023-03-19T05:51:19.513Z,11.70
2023-03-19T05:53:46.140Z,13.03
2023-03-19T05:56:12.746Z,14.73
2023-03-19T05:58:39.276Z,14.60
2023-03-19T06:01:05.967Z,15.80
2023-03-19T06:03:32.757Z,14.87
2023-03-19T06:05:59.426Z,15.80
2023-03-19T06:08:26.253Z,16.63
2023-03-19T06:10:53.205Z,16.73
2023-03-19T06:13:19.953Z,17.07
2023-03-19T06:15:47.647Z,16.67
2023-03-19T06:18:14.305Z,15.40
2023-03-19T06:20:41.262Z,14.20
2023-03-19T06:23:08.105Z,14.87
2023-03-19T06:25:34.712Z,17.53
2023-03-19T06:28:01.500Z,14.67
2023-03-19T06:30:28.136Z,14.23
2023-03-19T06:32:54.682Z,14.60
2023-03-19T06:35:21.312Z,13.80
2023-03-19T06:37:49.023Z,13.93
2023-03-19T06:40:16.007Z,14.67
2023-03-19T06:42:46.727Z,14.90
2023-03-19T06:45:16.490Z,15.87
2023-03-19T06:47:43.514Z,17.90
2023-03-19T06:50:11.373Z,16.53
2023-03-19T06:52:38.371Z,15.43
2023-03-19T06:55:05.568Z,15.13
2023-03-19T06:57:32.215Z,15.47
2023-03-19T06:59:58.985Z,14.73
2023-03-19T07:02:26.412Z,15.37
2023-03-19T07:04:53.499Z,15.43
2023-03-19T07:07:20.092Z,23.13
2023-03-19T07:09:46.716Z,26.27
2023-03-19T07:12:13.652Z,23.53
2023-03-19T07:14:40.868Z,20.93
2023-03-19T07:17:09.846Z,19.47
2023-03-19T07:19:36.972Z,17.90
2023-03-19T07:22:03.992Z,16.60
2023-03-19T07:24:30.704Z,14.70
2023-03-19T07:26:57.447Z,13.97
2023-03-19T07:29:24.090Z,13.30
2023-03-19T07:31:51.081Z,13.53
2023-03-19T07:34:17.920Z,13.10
2023-03-19T07:36:44.495Z,12.73
2023-03-19T07:39:11.181Z,12.87
2023-03-19T07:41:37.824Z,12.37
2023-03-19T07:44:04.451Z,12.67
2023-03-19T07:46:31.872Z,9.20
2023-03-19T07:48:58.497Z,9.43
2023-03-19T07:51:25.472Z,8.17
2023-03-19T07:53:51.991Z,7.80
2023-03-19T07:56:18.572Z,6.97
2023-03-19T07:58:45.120Z,6.13
2023-03-19T08:01:11.719Z,6.10
2023-03-19T08:03:38.697Z,5.23
2023-03-19T08:06:06.271Z,4.83
2023-03-19T08:08:35.369Z,4.60
2023-03-19T08:11:02.502Z,4.43
2023-03-19T08:13:29.242Z,4.77
2023-03-19T08:15:56.496Z,4.97
2023-03-19T08:18:23.288Z,4.50
2023-03-19T08:20:49.964Z,4.50
2023-03-19T08:23:16.718Z,4.33
2023-03-19T08:25:43.392Z,4.10
2023-03-19T08:28:09.970Z,4.40
2023-03-19T08:30:37.675Z,3.80
2023-03-19T08:33:04.882Z,4.27
2023-03-19T08:35:31.626Z,3.50
2023-03-19T08:37:58.232Z,4.00
2023-03-19T08:40:24.969Z,3.90
2023-03-19T08:42:51.548Z,3.47
2023-03-19T08:45:18.294Z,3.57
2023-03-19T08:47:45.002Z,3.50
2023-03-19T08:50:11.811Z,3.50
2023-03-19T08:52:38.600Z,3.70
2023-03-19T08:55:05.510Z,3.00
2023-03-19T08:57:32.844Z,3.47
2023-03-19T08:59:59.612Z,3.23
2023-03-19T09:02:26.583Z,3.60
2023-03-19T09:04:53.229Z,2.93
2023-03-19T09:07:19.954Z,3.40
2023-03-19T09:09:46.516Z,3.27
2023-03-19T09:12:14.286Z,3.20
2023-03-19T09:14:41.128Z,3.50
2023-03-19T09:17:08.165Z,3.50
2023-03-19T09:19:34.817Z,3.63
2023-03-19T09:22:01.452Z,3.50
2023-03-19T09:24:28.094Z,3.73
2023-03-19T09:26:54.780Z,3.90
2023-03-19T09:29:21.408Z,3.80
2023-03-19T09:31:48.084Z,4.50
2023-03-19T09:34:14.723Z,4.97
2023-03-19T09:36:41.283Z,4.20
2023-03-19T09:39:08.571Z,4.53
2023-03-19T09:41:47.540Z,4.70
2023-03-19T09:44:27.072Z,5.33
2023-03-19T09:46:53.654Z,5.20
2023-03-19T09:49:30.741Z,5.30
2023-03-19T09:52:17.542Z,6.00
2023-03-19T09:54:49.996Z,6.30
2023-03-19T09:57:17.596Z,6.70
2023-03-19T09:59:44.539Z,8.13
2023-03-19T10:02:11.065Z,7.90
2023-03-19T10:04:42.707Z,8.00
2023-03-19T10:07:16.312Z,7.10
2023-03-19T10:10:06.163Z,8.17
2023-03-19T10:12:45.079Z,7.13
2023-03-19T10:15:31.170Z,7.30
2023-03-19T10:18:09.996Z,7.33
2023-03-19T10:20:56.804Z,7.33
2023-03-19T10:23:27.202Z,6.93
2023-03-19T10:25:55.671Z,7.07
2023-03-19T10:28:22.949Z,7.47
2023-03-19T10:30:53.637Z,7.20
2023-03-19T10:33:24.919Z,6.97
2023-03-19T10:36:00.662Z,6.93
2023-03-19T10:38:28.254Z,6.43
2023-03-19T10:41:02.247Z,5.93
2023-03-19T10:43:30.184Z,5.73
2023-03-19T10:45:58.332Z,5.53
2023-03-19T10:48:28.123Z,6.00
2023-03-19T10:50:59.956Z,6.23
2023-03-19T10:53:36.918Z,5.20
2023-03-19T10:56:05.696Z,5.60
2023-03-19T10:58:33.717Z,5.60
2023-03-19T11:01:11.316Z,5.63
2023-03-19T11:03:39.500Z,5.37
2023-03-19T11:06:25.202Z,6.13
2023-03-19T11:08:59.627Z,6.33
2023-03-19T11:11:34.023Z,6.23
2023-03-19T11:14:14.334Z,6.23
2023-03-19T11:16:59.230Z,5.97
2023-03-19T11:19:28.221Z,5.90
2023-03-19T11:22:14.331Z,6.00
2023-03-19T11:24:41.742Z,6.23
2023-03-19T11:27:09.973Z,5.53
2023-03-19T11:29:38.796Z,5.83
2023-03-19T11:32:21.592Z,6.80
2023-03-19T11:35:07.566Z,6.07
2023-03-19T11:37:34.078Z,6.40
2023-03-19T11:40:10.754Z,6.23
2023-03-19T11:42:56.073Z,5.87
2023-03-19T11:45:22.571Z,6.00
2023-03-19T11:47:49.412Z,5.77
2023-03-19T11:50:19.395Z,6.63
2023-03-19T11:52:48.934Z,6.33
2023-03-19T11:55:37.070Z,6.60
2023-03-19T11:58:12.798Z,6.27
2023-03-19T12:00:39.496Z,6.10
2023-03-19T12:03:06.965Z,5.13
2023-03-19T12:05:50.066Z,5.13
2023-03-19T12:08:19.727Z,5.10
2023-03-19T12:11:00.196Z,4.93
2023-03-19T12:13:29.912Z,4.83
2023-03-19T12:16:06.194Z,5.00
2023-03-19T12:18:32.740Z,5.13
2023-03-19T12:21:05.451Z,5.03
2023-03-19T12:23:34.007Z,5.00
2023-03-19T12:26:09.812Z,5.33
2023-03-19T12:28:41.710Z,5.80
2023-03-19T12:31:16.642Z,5.87
2023-03-19T12:33:43.785Z,5.30
2023-03-19T12:36:13.815Z,5.07
2023-03-19T12:38:45.933Z,4.47
2023-03-19T12:41:23.472Z,4.67
2023-03-19T12:44:00.073Z,4.10
2023-03-19T12:46:45.895Z,4.10
2023-03-19T12:49:18.573Z,4.47
2023-03-19T12:51:52.144Z,4.37
2023-03-19T12:54:21.389Z,4.90
2023-03-19T12:56:52.116Z,4.90
2023-03-19T12:59:25.027Z,4.13
2023-03-19T13:01:53.881Z,5.50
2023-03-19T13:04:23.001Z,5.47
2023-03-19T13:06:55.281Z,5.90
2023-03-19T13:09:28.215Z,5.77
2023-03-19T13:11:54.933Z,5.40
2023-03-19T13:14:25.553Z,5.83
2023-03-19T13:16:58.798Z,5.93
2023-03-19T13:19:29.623Z,5.17
2023-03-19T13:21:58.719Z,5.47
2023-03-19T13:24:36.708Z,4.80
2023-03-19T13:27:03.712Z,5.17
2023-03-19T13:29:31.395Z,6.10
2023-03-19T13:32:02.182Z,5.73
2023-03-19T13:34:29.780Z,5.60
2023-03-19T13:37:14.805Z,5.33
2023-03-19T13:39:42.383Z,6.67
2023-03-19T13:42:21.170Z,6.40
2023-03-19T13:44:57.142Z,6.30
2023-03-19T13:47:26.780Z,5.73
2023-03-19T13:50:15.856Z,6.50
2023-03-19T13:52:42.746Z,6.57
2023-03-19T13:55:24.500Z,6.50
2023-03-19T13:58:12.714Z,7.07
2023-03-19T14:00:45.355Z,6.87
2023-03-19T14:03:22.393Z,5.83
2023-03-19T14:05:50.120Z,6.53
2023-03-19T14:08:20.067Z,7.13
2023-03-19T14:10:49.978Z,7.33
2023-03-19T14:13:36.738Z,7.97
2023-03-19T14:16:07.215Z,7.63
2023-03-19T14:18:37.510Z,7.53
2023-03-19T14:21:13.045Z,8.17
2023-03-19T14:23:44.071Z,8.07
2023-03-19T14:26:15.136Z,8.90
2023-03-19T14:28:44.938Z,10.00
2023-03-19T14:31:24.072Z,11.00
2023-03-19T14:33:53.898Z,10.70
2023-03-19T14:36:22.052Z,11.03
2023-03-19T14:38:58.393Z,11.37
2023-03-19T14:41:26.913Z,10.97
2023-03-19T14:44:12.097Z,10.90
2023-03-19T14:46:57.424Z,12.23
2023-03-19T14:49:42.844Z,10.87
2023-03-19T14:52:15.901Z,11.90
2023-03-19T14:55:02.393Z,9.73
2023-03-19T14:57:31.119Z,9.80
2023-03-19T14:59:57.988Z,10.20
2023-03-19T15:02:30.580Z,9.30
2023-03-19T15:04:59.461Z,9.07
2023-03-19T15:07:32.517Z,9.07
2023-03-19T15:10:01.744Z,8.87
2023-03-19T15:13:00.697Z,9.90
2023-03-19T15:15:36.769Z,8.83
2023-03-19T15:18:08.490Z,9.90
2023-03-19T15:20:37.316Z,10.57
2023-03-19T15:23:13.362Z,10.27
2023-03-19T15:25:47.230Z,11.20
2023-03-19T15:28:15.055Z,11.27
2023-03-19T15:30:53.792Z,11.37
2023-03-19T15:33:39.403Z,10.70
2023-03-19T15:36:12.048Z,10.87
2023-03-19T15:38:41.832Z,11.07
2023-03-19T15:41:08.868Z,12.70
2023-03-19T15:43:37.052Z,12.30
2023-03-19T15:46:03.870Z,13.57
2023-03-19T15:48:43.991Z,14.10
2023-03-19T15:51:12.044Z,13.20
2023-03-19T15:53:39.054Z,12.67
2023-03-19T15:56:06.027Z,13.20
2023-03-19T15:58:36.962Z,12.97
2023-03-19T16:01:06.656Z,13.93
2023-03-19T16:03:40.131Z,13.33
2023-03-19T16:06:12.848Z,12.97
2023-03-19T16:08:46.138Z,13.23
2023-03-19T16:11:25.046Z,13.40
2023-03-19T16:13:57.086Z,13.37
2023-03-19T16:16:23.940Z,12.17
2023-03-19T16:18:55.572Z,12.13
2023-03-19T16:21:22.152Z,12.93
2023-03-19T16:23:54.764Z,12.33
2023-03-19T16:26:40.684Z,12.00
2023-03-19T16:29:07.272Z,11.97
2023-03-19T16:31:42.056Z,12.13
2023-03-19T16:34:23.123Z,11.03
2023-03-19T16:36:49.760Z,12.60
2023-03-19T16:39:35.828Z,13.03
2023-03-19T16:42:08.574Z,12.57
2023-03-19T16:44:38.998Z,13.33
2023-03-19T16:47:11.198Z,13.20
2023-03-19T16:49:37.946Z,12.33
2023-03-19T16:52:04.925Z,12.40
2023-03-19T16:54:31.578Z,11.97
2023-03-19T16:56:58.146Z,13.77
2023-03-19T16:59:27.419Z,12.77
2023-03-19T17:01:54.024Z,11.50
2023-03-19T17:04:20.714Z,12.50
2023-03-19T17:06:47.269Z,12.77
2023-03-19T17:09:13.817Z,12.13
2023-03-19T17:11:42.131Z,12.63
2023-03-19T17:14:14.992Z,12.50
2023-03-19T17:16:46.974Z,12.30
2023-03-19T17:19:18.639Z,12.27
2023-03-19T17:21:46.334Z,12.73
2023-03-19T17:24:30.053Z,12.67
2023-03-19T17:26:57.865Z,13.20
2023-03-19T17:29:25.580Z,12.87
2023-03-19T17:31:53.261Z,14.57
2023-03-19T17:34:21.374Z,14.90
2023-03-19T17:36:52.276Z,15.60
2023-03-19T17:39:19.243Z,15.20
2023-03-19T17:41:46.216Z,14.90
2023-03-19T17:44:14.553Z,14.97
2023-03-19T17:46:44.492Z,15.80
2023-03-19T17:49:21.437Z,14.43
2023-03-19T17:51:48.384Z,14.87
2023-03-19T17:54:14.918Z,15.10
2023-03-19T17:56:43.403Z,13.43
2023-03-19T17:59:10.561Z,14.00
2023-03-19T18:01:38.055Z,13.33
2023-03-19T18:04:04.779Z,13.13
2023-03-19T18:06:34.859Z,14.50
2023-03-19T18:09:01.412Z,13.93
2023-03-19T18:11:27.942Z,12.70
2023-03-19T18:13:54.875Z,13.47
2023-03-19T18:16:24.587Z,13.63
2023-03-19T18:18:51.619Z,13.23
2023-03-19T18:21:19.044Z,13.60
2023-03-19T18:23:46.884Z,14.23
2023-03-19T18:26:14.134Z,14.47
2023-03-19T18:28:41.113Z,14.70
2023-03-19T18:31:13.689Z,12.73
2023-03-19T18:33:40.685Z,13.80
2023-03-19T18:36:07.662Z,14.00
2023-03-19T18:38:34.182Z,13.80
2023-03-19T18:41:00.744Z,13.70
2023-03-19T18:43:27.346Z,13.40
2023-03-19T18:45:54.764Z,14.80
2023-03-19T18:48:21.645Z,14.37
2023-03-19T18:50:48.509Z,13.67
2023-03-19T18:53:16.341Z,13.83
2023-03-19T18:55:43.469Z,13.93
2023-03-19T18:58:14.507Z,13.90
2023-03-19T19:00:41.164Z,13.23
2023-03-19T19:03:07.830Z,11.93
2023-03-19T19:05:34.429Z,12.07
2023-03-19T19:08:02.404Z,12.73
2023-03-19T19:10:31.430Z,12.67
2023-03-19T19:12:59.033Z,12.57
2023-03-19T19:15:37.961Z,13.50
2023-03-19T19:18:18.099Z,12.37
2023-03-19T19:20:46.122Z,11.90
2023-03-19T19:23:13.677Z,11.97
2023-03-19T19:25:41.412Z,12.70
2023-03-19T19:28:14.395Z,12.20
2023-03-19T19:30:41.315Z,12.43
2023-03-19T19:33:21.472Z,12.87
2023-03-19T19:35:48.628Z,12.37
2023-03-19T19:38:15.542Z,12.33
2023-03-19T19:40:42.956Z,12.53
2023-03-19T19:43:38.953Z,12.53
2023-03-19T19:46:05.628Z,12.03
2023-03-19T19:48:32.172Z,12.43
2023-03-19T19:50:58.761Z,14.07
2023-03-19T19:53:26.275Z,15.50
2023-03-19T19:55:53.294Z,14.37
2023-03-19T19:58:24.968Z,12.90
2023-03-19T20:01:02.974Z,13.10
2023-03-19T20:03:32.262Z,12.80
2023-03-19T20:05:59.638Z,14.03
2023-03-19T20:08:27.210Z,15.63
2023-03-19T20:10:54.290Z,13.40
2023-03-19T20:13:21.434Z,14.00
2023-03-19T20:15:48.538Z,14.57
2023-03-19T20:18:17.566Z,13.97
2023-03-19T20:20:44.172Z,13.57
2023-03-19T20:23:10.976Z,14.60
2023-03-19T20:25:38.378Z,15.07
2023-03-19T20:28:05.971Z,14.33
2023-03-19T20:30:34.050Z,14.53
2023-03-19T20:33:02.049Z,14.57
2023-03-19T20:35:30.085Z,15.27
2023-03-19T20:37:57.415Z,14.90
2023-03-19T20:40:25.528Z,14.50
2023-03-19T20:42:52.564Z,15.17
2023-03-19T20:45:23.233Z,14.87
2023-03-19T20:47:52.080Z,14.37
2023-03-19T20:50:25.974Z,14.53
2023-03-19T20:52:52.985Z,14.13
2023-03-19T20:55:20.909Z,14.77
2023-03-19T20:57:48.845Z,14.53
2023-03-19T21:00:20.564Z,14.90
2023-03-19T21:02:47.788Z,16.17
2023-03-19T21:05:15.005Z,14.73
2023-03-19T21:07:43.101Z,16.83
2023-03-19T21:10:19.608Z,17.57
2023-03-19T21:12:46.351Z,17.10
2023-03-19T21:15:16.239Z,17.47
2023-03-19T21:17:43.689Z,16.40
2023-03-19T21:20:21.252Z,16.27
2023-03-19T21:22:50.375Z,16.70
2023-03-19T21:25:19.439Z,15.90
2023-03-19T21:27:47.704Z,17.03
2023-03-19T21:30:15.834Z,16.80
2023-03-19T21:32:42.518Z,17.30
2023-03-19T21:35:19.726Z,16.83
2023-03-19T21:37:46.514Z,16.13
2023-03-19T21:40:16.898Z,16.00
2023-03-19T21:42:44.551Z,16.27
2023-03-19T21:45:17.608Z,15.00
2023-03-19T21:47:44.740Z,14.60
2023-03-19T21:50:17.094Z,16.07
2023-03-19T21:52:58.435Z,15.57
2023-03-19T21:55:27.985Z,15.27
2023-03-19T21:57:57.349Z,17.77
2023-03-19T22:00:24.437Z,17.07
2023-03-19T22:02:51.133Z,16.80
2023-03-19T22:05:19.715Z,18.87
2023-03-19T22:07:46.536Z,19.50
2023-03-19T22:10:13.698Z,19.23
2023-03-19T22:12:41.267Z,20.37
2023-03-19T22:15:16.060Z,20.57
2023-03-19T22:17:42.648Z,19.83
2023-03-19T22:20:20.703Z,20.43
2023-03-19T22:22:47.360Z,22.23
2023-03-19T22:25:15.512Z,23.23
2023-03-19T22:27:42.994Z,24.30
2023-03-19T22:30:18.836Z,22.53
2023-03-19T22:32:45.575Z,24.23
2023-03-19T22:35:16.201Z,25.00
2023-03-19T22:37:42.835Z,24.63
2023-03-19T22:40:11.140Z,23.83
2023-03-19T22:42:38.858Z,25.00
2023-03-19T22:45:06.373Z,24.83
2023-03-19T22:47:35.112Z,23.93
2023-03-19T22:50:02.536Z,26.10
2023-03-19T22:52:29.161Z,24.80
2023-03-19T22:54:55.650Z,25.83
2023-03-19T22:57:22.334Z,24.90
2023-03-19T22:59:48.974Z,25.77
2023-03-19T23:02:16.400Z,25.10
2023-03-19T23:04:42.956Z,25.10
2023-03-19T23:07:11.589Z,25.47
2023-03-19T23:09:39.008Z,25.50
2023-03-19T23:12:06.208Z,25.03
2023-03-19T23:14:32.996Z,25.60
2023-03-19T23:17:04.098Z,25.27
2023-03-19T23:19:32.781Z,25.47
2023-03-19T23:22:00.039Z,25.30
2023-03-19T23:24:27.941Z,25.67
2023-03-19T23:26:55.750Z,26.83
2023-03-19T23:29:24.556Z,25.67
2023-03-19T23:31:51.367Z,25.73
2023-03-19T23:34:18.261Z,26.10
2023-03-19T23:36:45.124Z,26.27
2023-03-19T23:39:11.973Z,26.73
2023-03-19T23:41:44.804Z,26.37
2023-03-19T23:44:14.180Z,26.60
2023-03-19T23:46:41.049Z,26.07
2023-03-19T23:49:14.592Z,28.00
2023-03-19T23:51:42.138Z,27.00
2023-03-19T23:54:24.263Z,25.40
2023-03-19T23:56:52.441Z,26.87
2023-03-19T23:59:19.022Z,26.53
